Portada
METAR-TAF:

METAR-TAF

Aeroports :

Pohnpei, Micronèsia

latitud: 06-59N, longitud: 158-12E, altitud: 2 m

Observació

L'informe es va fer fa 1 hora i 4 minuts, a les 04:50 UTC
Vent 4 kt del Nord/Nord-Oest
Temperatura 31°C
Humitat 71%
Pressió 1009 hPa
Visibilitat: 24.1 km
Núvols disperses a una alçada de 1800 ft, Cumulus congestus.
Cel cobert a una alçada de 30000 ft

METAR: PTPN 250450Z 33004KT 15SM SCT018TCU OVC300 31/25 A2981 RMK TCU SE-S

Hora: 16:54 (05:54 UTC)

Pronòstic

L'informe es va fer fa 24 minuts, a les 05:30 UTC
Pronòstic vàlid del 25 a les 06 UTC al 26 a les 06 UTC
Vent 5 kt amb direcció variable
Visibilitat: 10 km
Núvols disperses a una alçada de 1800 ft
Núvols disperses a una alçada de 12000 ft
xàfecs en les proximitats

TAF: PTPN 250530Z 2506/2606 VRB05KT P6SM VCSH SCT018 SCT120

Observacions i pronòstics meteorològics de més de 4000 aeroports (METAR i TAF).

Les estacions disponibles són els punts grocs i vermells al mapa.

Posi el ratolí al punt desitjat per veure el nom de l'estació.

Feu clic per veure les observacions i els pronòstics meteorològics.

Per canviar el mapa: feu clic els botons verds amb una creu de color negre per apropar; al botó verd amb un guió per allunyar la imatge; o en les fletxes verdes per a mapes adjacents.


METAR-TAF: